Time;durP1;ratioP1;P1;durP2;ratioP2;P2;SDS_P1;SDS_P2;PMS_P1;PMS_P2;Temp;Humidity;BMP_temperature;BMP_pressure;BME280_temperature;BME280_humidity;BME280_pressure;Samples;Min_cycle;Max_cycle;Signal;HPM_P1;HPM_P2
2022/09/28 00:00:06;;;;;;;4.55;1.92;;;;;;;12.15;64.15;99530.66;5118344;28;20043;-66
2022/09/28 00:02:34;;;;;;;2.85;2.15;;;;;;;12.14;63.82;99529.84;5124119;28;20048;-64
2022/09/28 00:05:02;;;;;;;4.30;2.13;;;;;;;12.14;64.17;99535.22;5126912;27;20054;-65
2022/09/28 00:07:30;;;;;;;2.78;1.80;;;;;;;12.15;63.90;99541.44;5132562;27;20053;-65
2022/09/28 00:09:59;;;;;;;4.30;2.20;;;;;;;12.12;63.84;99533.91;5124439;28;20153;-65
2022/09/28 00:12:28;;;;;;;2.85;1.90;;;;;;;12.11;63.69;99525.00;5119039;28;20465;-65
2022/09/28 00:14:56;;;;;;;4.78;2.20;;;;;;;12.09;63.80;99531.75;5123949;27;20593;-65
2022/09/28 00:17:25;;;;;;;2.83;2.03;;;;;;;12.09;63.68;99534.44;5112531;27;20044;-65
2022/09/28 00:19:53;;;;;;;4.43;2.10;;;;;;;12.08;63.92;99535.50;5118482;28;20116;-65
2022/09/28 00:22:20;;;;;;;3.92;2.13;;;;;;;12.08;63.87;99532.81;5124764;27;20103;-65
2022/09/28 00:24:48;;;;;;;3.60;1.77;;;;;;;12.07;63.91;99539.28;5125250;28;20047;-65
2022/09/28 00:27:17;;;;;;;4.40;2.63;;;;;;;12.05;63.92;99537.66;5115696;28;20047;-65
2022/09/28 00:29:45;;;;;;;4.43;2.20;;;;;;;12.04;63.92;99538.72;5120241;28;20048;-65
2022/09/28 00:32:14;;;;;;;5.07;1.95;;;;;;;12.02;64.07;99537.38;5122320;27;20052;-65
2022/09/28 00:34:44;;;;;;;5.45;2.20;;;;;;;11.94;63.93;99514.44;5117331;27;20151;-65
2022/09/28 00:37:14;;;;;;;3.40;1.98;;;;;;;12.02;64.14;99526.59;5116386;27;20251;-64
2022/09/28 00:39:42;;;;;;;3.25;2.15;;;;;;;12.02;63.93;99526.59;5126138;27;20066;-64
2022/09/28 00:42:14;;;;;;;4.47;2.20;;;;;;;12.01;64.00;99525.78;5120587;27;20054;-65
2022/09/28 00:44:47;;;;;;;5.25;2.25;;;;;;;12.02;63.95;99527.41;5124443;28;20135;-65
2022/09/28 00:47:26;;;;;;;3.85;2.15;;;;;;;12.01;63.90;99527.66;5121945;28;20048;-65
2022/09/28 00:49:59;;;;;;;3.33;1.90;;;;;;;12.00;63.98;99512.59;5124570;27;20166;-65
2022/09/28 00:52:32;;;;;;;3.63;2.10;;;;;;;12.00;64.18;99513.41;5121838;27;20050;-65
2022/09/28 00:55:03;;;;;;;5.32;2.40;;;;;;;12.00;64.29;99509.91;5125207;27;20562;-65
2022/09/28 00:57:32;;;;;;;3.65;2.38;;;;;;;12.00;64.12;99512.59;5120281;28;20042;-65
2022/09/28 01:00:03;;;;;;;3.03;2.05;;;;;;;12.01;64.26;99516.91;5113725;27;20059;-65
2022/09/28 01:02:31;;;;;;;6.18;2.45;;;;;;;11.99;64.32;99506.38;5135140;27;20055;-66
2022/09/28 01:05:00;;;;;;;3.28;2.25;;;;;;;11.99;64.07;99501.00;5128173;27;20094;-65
2022/09/28 01:07:28;;;;;;;3.65;2.45;;;;;;;11.99;64.15;99498.31;5126339;28;20046;-65
2022/09/28 01:09:56;;;;;;;5.28;2.60;;;;;;;12.00;64.35;99502.63;5126023;27;20060;-65
2022/09/28 01:12:24;;;;;;;4.93;2.30;;;;;;;11.99;64.32;99502.88;5124508;27;20643;-65
2022/09/28 01:14:52;;;;;;;2.80;2.08;;;;;;;12.00;64.27;99499.13;5121435;27;20043;-65
2022/09/28 01:17:26;;;;;;;3.88;2.38;;;;;;;11.99;64.24;99487.53;5119694;28;20044;-65
2022/09/28 01:20:22;;;;;;;4.38;2.72;;;;;;;11.96;64.38;99485.38;5121658;27;20052;-65
2022/09/28 01:23:19;;;;;;;4.88;2.50;;;;;;;11.97;64.34;99495.06;5113080;27;20050;-64
2022/09/28 01:25:54;;;;;;;6.22;2.63;;;;;;;11.95;64.50;99497.22;5124790;27;20579;-65
2022/09/28 01:28:27;;;;;;;4.82;2.63;;;;;;;11.97;64.64;99502.34;5127230;27;20050;-65
2022/09/28 01:31:04;;;;;;;4.82;3.10;;;;;;;11.97;64.41;99505.84;5125392;27;20051;-65
2022/09/28 01:33:38;;;;;;;4.82;2.72;;;;;;;11.96;64.83;99504.22;5126780;27;20043;-65
2022/09/28 01:36:11;;;;;;;5.15;2.75;;;;;;;11.96;64.57;99503.41;5120654;27;20043;-65
2022/09/28 01:38:44;;;;;;;6.50;3.22;;;;;;;11.95;64.77;99507.19;5126447;27;20061;-65
2022/09/28 01:41:13;;;;;;;5.22;3.00;;;;;;;11.95;64.71;99504.50;5122518;28;20147;-65
2022/09/28 01:43:47;;;;;;;9.93;3.20;;;;;;;11.95;64.82;99509.88;5122886;28;20043;-65
2022/09/28 01:46:19;;;;;;;4.68;2.92;;;;;;;11.94;64.85;99510.94;5124225;27;20051;-65
2022/09/28 01:48:52;;;;;;;6.30;3.08;;;;;;;11.93;64.58;99517.41;5125408;28;20048;-65
2022/09/28 01:51:25;;;;;;;7.75;3.80;;;;;;;11.93;65.06;99514.72;5118243;28;20040;-63
2022/09/28 01:53:57;;;;;;;5.07;3.38;;;;;;;11.89;64.91;99514.44;5117229;27;20070;-64
2022/09/28 01:56:30;;;;;;;6.60;3.70;;;;;;;11.89;65.11;99517.13;5127687;27;20059;-65
2022/09/28 01:59:08;;;;;;;6.47;3.58;;;;;;;11.88;65.09;99522.75;5124317;27;20047;-64
2022/09/28 02:01:40;;;;;;;7.10;4.20;;;;;;;11.86;64.85;99512.25;5128689;27;20040;-64
2022/09/28 02:04:14;;;;;;;6.43;3.90;;;;;;;11.85;65.17;99516.03;5123633;27;20048;-65
2022/09/28 02:06:46;;;;;;;6.75;4.32;;;;;;;11.86;65.00;99509.56;5124646;28;20050;-65
2022/09/28 02:09:20;;;;;;;9.27;3.80;;;;;;;11.86;64.93;99508.75;5122918;27;20460;-64
2022/09/28 02:11:53;;;;;;;5.07;3.97;;;;;;;11.85;65.27;99505.25;5127839;27;20131;-64
2022/09/28 02:14:24;;;;;;;7.82;3.88;;;;;;;11.86;65.27;99503.38;5125207;28;20132;-65
2022/09/28 02:16:54;;;;;;;7.53;3.88;;;;;;;11.85;65.20;99510.66;5125376;28;20043;-64
2022/09/28 02:19:25;;;;;;;4.00;3.08;;;;;;;11.77;65.25;99495.00;5130075;27;20052;-64
2022/09/28 02:21:58;;;;;;;5.85;4.03;;;;;;;11.84;64.92;99508.22;5121894;27;20047;-65
2022/09/28 02:24:32;;;;;;;7.05;3.83;;;;;;;11.84;65.18;99508.22;5121033;27;20144;-64
2022/09/28 02:27:09;;;;;;;6.65;3.40;;;;;;;11.84;65.04;99510.91;5122811;28;20051;-65
2022/09/28 02:29:37;;;;;;;;;;;;;;;11.84;65.18;99510.91;5120869;27;20059;-65
2022/09/28 02:32:05;;;;;;;8.55;3.70;;;;;;;11.81;65.09;99512.25;5128283;27;19919;-64
2022/09/28 02:34:35;;;;;;;6.25;4.45;;;;;;;11.83;64.88;99510.09;5116797;28;20048;-64
2022/09/28 02:37:03;;;;;;;7.40;3.60;;;;;;;11.83;64.96;99506.59;5117915;28;20048;-64
2022/09/28 02:39:31;;;;;;;9.25;4.03;;;;;;;11.81;65.08;99514.94;5119686;27;20054;-65
2022/09/28 02:42:07;;;;;;;9.13;3.70;;;;;;;11.82;64.77;99508.47;5116897;27;20058;-65
2022/09/28 02:45:05;;;;;;;6.10;3.30;;;;;;;11.82;65.02;99513.84;5125221;27;20047;-65
2022/09/28 02:47:45;;;;;;;5.63;3.20;;;;;;;11.81;65.03;99506.84;5109330;28;20044;-65
2022/09/28 02:50:20;;;;;;;5.10;3.38;;;;;;;11.80;64.82;99518.69;5121619;27;20052;-65
2022/09/28 02:53:14;;;;;;;8.15;3.03;;;;;;;11.80;64.88;99512.50;5114735;28;20044;-65
2022/09/28 02:55:56;;;;;;;5.20;2.50;;;;;;;11.80;64.76;99512.50;5116965;27;20043;-65
2022/09/28 02:58:39;;;;;;;6.25;3.30;;;;;;;11.80;64.55;99512.50;5117990;28;20048;-64
2022/09/28 03:01:20;;;;;;;5.20;3.13;;;;;;;11.80;64.48;99517.88;5125932;27;20059;-65
2022/09/28 03:03:54;;;;;;;6.07;3.05;;;;;;;11.79;64.43;99518.97;5120057;27;20062;-64
2022/09/28 03:06:27;;;;;;;4.93;2.75;;;;;;;11.79;64.69;99524.34;5117258;27;20044;-64
2022/09/28 03:09:00;;;;;;;7.75;3.05;;;;;;;11.79;64.64;99516.25;5128044;27;20051;-65
2022/09/28 03:11:33;;;;;;;4.10;2.60;;;;;;;11.77;64.57;99523.75;5127803;27;20043;-65
2022/09/28 03:14:02;;;;;;;7.22;3.97;;;;;;;11.76;64.40;99519.44;5117630;28;20053;-65
2022/09/28 03:16:32;;;;;;;7.22;2.83;;;;;;;11.74;64.39;99512.44;5124826;28;20575;-65
2022/09/28 03:18:59;;;;;;;4.00;2.90;;;;;;;11.59;64.55;99495.41;5127124;27;20047;-65
2022/09/28 03:21:27;;;;;;;5.60;3.13;;;;;;;11.74;64.36;99520.53;5114523;27;20040;-65
2022/09/28 03:23:55;;;;;;;7.13;3.10;;;;;;;11.74;64.51;99527.78;5112872;27;20067;-65
2022/09/28 03:26:23;;;;;;;5.80;2.88;;;;;;;11.73;64.40;99526.97;5124417;27;20049;-63
2022/09/28 03:28:50;;;;;;;5.00;2.80;;;;;;;11.74;64.54;99525.09;5123965;27;20048;-64
2022/09/28 03:31:18;;;;;;;4.05;2.33;;;;;;;11.73;64.34;99524.28;5120883;28;20048;-65
2022/09/28 03:33:48;;;;;;;3.65;2.40;;;;;;;11.73;64.43;99523.47;5114985;28;20146;-64
2022/09/28 03:36:15;;;;;;;6.82;3.70;;;;;;;11.73;64.48;99523.47;5123331;27;20055;-65
2022/09/28 03:38:43;;;;;;;5.18;2.70;;;;;;;11.73;64.43;99520.78;5116397;28;20047;-65
2022/09/28 03:41:11;;;;;;;4.03;2.42;;;;;;;11.72;64.48;99516.47;5112572;28;20062;-64
2022/09/28 03:43:39;;;;;;;7.55;2.85;;;;;;;11.71;64.32;99515.66;5118340;28;20114;-64
2022/09/28 03:46:07;;;;;;;5.13;2.88;;;;;;;11.72;64.56;99514.59;5111840;28;20048;-64
2022/09/28 03:48:36;;;;;;;4.75;2.28;;;;;;;11.70;64.42;99516.72;5120890;28;20048;-65
2022/09/28 03:51:08;;;;;;;3.92;2.60;;;;;;;11.70;64.59;99519.44;5124715;28;20111;-64
2022/09/28 03:53:36;;;;;;;6.60;2.70;;;;;;;11.70;64.50;99532.06;5114519;28;20556;-64
2022/09/28 03:56:05;;;;;;;3.75;2.25;;;;;;;11.70;64.46;99518.63;5121238;28;20043;-64
2022/09/28 03:58:33;;;;;;;5.38;2.67;;;;;;;11.70;64.53;99532.06;5120613;28;20044;-65
2022/09/28 04:01:05;;;;;;;5.72;3.17;;;;;;;11.68;64.53;99518.88;5115572;28;20127;-65
2022/09/28 04:03:33;;;;;;;3.47;2.08;;;;;;;11.67;64.34;99528.03;5114230;28;20056;-64
2022/09/28 04:06:01;;;;;;;5.13;2.33;;;;;;;11.68;64.49;99526.13;5120467;28;20153;-64
2022/09/28 04:08:31;;;;;;;5.88;2.92;;;;;;;11.67;64.48;99527.22;5125714;28;20070;-65
2022/09/28 04:10:59;;;;;;;4.10;2.30;;;;;;;11.57;64.48;99509.13;5115212;28;20054;-64
2022/09/28 04:13:28;;;;;;;4.57;2.47;;;;;;;11.65;64.47;99516.72;5120735;28;20048;-64
2022/09/28 04:15:57;;;;;;;5.43;2.10;;;;;;;11.65;64.57;99521.28;5120216;28;20062;-64
2022/09/28 04:18:26;;;;;;;3.70;2.40;;;;;;;11.63;64.44;99524.22;5128327;28;20048;-65
2022/09/28 04:21:05;;;;;;;5.38;2.42;;;;;;;11.63;64.57;99526.94;5120077;28;20043;-64
2022/09/28 04:23:35;;;;;;;5.57;2.55;;;;;;;11.64;64.27;99525.84;5122686;28;20103;-65
2022/09/28 04:26:04;;;;;;;2.88;2.13;;;;;;;11.54;64.46;99519.59;5115268;28;20134;-65
2022/09/28 04:31:20;;;;;;;3.88;1.90;;;;;;;11.62;64.34;99535.25;5115650;28;20067;-65
2022/09/28 04:33:49;;;;;;;3.90;2.30;;;;;;;11.61;64.33;99529.06;5117334;28;20052;-64
2022/09/28 04:36:18;;;;;;;7.20;3.05;;;;;;;11.61;64.52;99528.25;5117562;28;20047;-65
2022/09/28 04:38:47;;;;;;;4.78;2.35;;;;;;;11.59;64.38;99523.13;5115458;28;20055;-64
2022/09/28 04:41:21;;;;;;;5.15;2.50;;;;;;;11.60;64.58;99518.56;5113126;28;20039;-65
2022/09/28 04:43:49;;;;;;;4.53;2.30;;;;;;;11.58;64.36;99516.13;5120776;28;20048;-64
2022/09/28 04:46:17;;;;;;;4.50;2.50;;;;;;;11.49;64.48;99506.13;5117616;28;20048;-64
2022/09/28 04:48:45;;;;;;;4.22;2.90;;;;;;;11.56;64.61;99520.97;5119168;28;20048;-63
2022/09/28 04:51:13;;;;;;;6.82;3.40;;;;;;;11.57;64.60;99519.09;5126020;28;20052;-64
2022/09/28 04:53:41;;;;;;;4.20;2.40;;;;;;;11.54;64.40;99519.59;5108891;27;20054;-65
2022/09/28 04:56:12;;;;;;;4.35;3.00;;;;;;;11.54;64.57;99519.59;5116996;27;20160;-64
2022/09/28 04:58:40;;;;;;;5.55;2.63;;;;;;;11.54;64.50;99519.59;5113895;28;20080;-65
2022/09/28 05:01:11;;;;;;;4.10;2.50;;;;;;;11.54;64.68;99522.28;5120244;28;20056;-65
2022/09/28 05:03:39;;;;;;;3.40;2.58;;;;;;;11.54;64.57;99531.19;5124910;27;20144;-65
2022/09/28 05:06:07;;;;;;;5.82;2.58;;;;;;;11.52;64.42;99519.88;5122325;27;20040;-65
2022/09/28 05:08:36;;;;;;;5.18;3.00;;;;;;;11.53;64.58;99529.56;5122911;27;20043;-65
2022/09/28 05:11:07;;;;;;;4.22;2.63;;;;;;;11.51;64.49;99523.63;5118126;27;20048;-64
2022/09/28 05:13:41;;;;;;;3.30;2.03;;;;;;;11.51;64.50;99534.38;5118778;27;20077;-64
2022/09/28 05:16:09;;;;;;;5.10;2.55;;;;;;;11.42;64.34;99527.88;5124353;27;20044;-66
2022/09/28 05:18:38;;;;;;;4.90;2.33;;;;;;;11.48;64.30;99534.91;5123750;27;20116;-64
2022/09/28 05:21:09;;;;;;;3.90;2.30;;;;;;;11.48;64.28;99537.59;5122533;27;20058;-64
2022/09/28 05:23:37;;;;;;;4.00;2.60;;;;;;;11.46;64.27;99537.03;4760786;27;9999967;-64
2022/09/28 05:26:05;;;;;;;6.40;2.40;;;;;;;11.47;64.30;99545.94;5116719;28;20048;-63
2022/09/28 05:28:34;;;;;;;3.50;2.47;;;;;;;11.46;64.40;99547.81;5125685;27;20047;-66
2022/09/28 05:31:04;;;;;;;3.85;2.17;;;;;;;11.46;64.20;99550.50;5119458;27;20058;-63
2022/09/28 05:33:33;;;;;;;4.43;2.42;;;;;;;11.46;64.23;99549.69;5107726;28;20052;-64
2022/09/28 05:36:01;;;;;;;4.00;2.20;;;;;;;11.46;64.26;99539.75;5118689;28;20071;-65
2022/09/28 05:38:30;;;;;;;5.53;2.67;;;;;;;11.45;64.34;99545.38;5115454;28;20531;-65
2022/09/28 05:40:57;;;;;;;3.55;2.50;;;;;;;11.45;64.29;99543.50;5110001;28;20054;-63
2022/09/28 05:43:31;;;;;;;5.63;2.38;;;;;;;11.45;64.37;99540.81;5117563;27;20055;-64
2022/09/28 05:46:00;;;;;;;6.15;2.60;;;;;;;11.45;64.38;99540.00;5110297;27;20056;-63
2022/09/28 05:48:29;;;;;;;4.93;3.08;;;;;;;11.45;64.21;99542.69;5120528;27;20078;-63
2022/09/28 05:50:58;;;;;;;4.70;2.60;;;;;;;11.47;64.36;99540.53;5123316;27;20048;-66
2022/09/28 05:53:26;;;;;;;3.60;2.40;;;;;;;11.40;64.23;99516.56;5117198;27;20123;-66
2022/09/28 05:55:57;;;;;;;5.32;2.70;;;;;;;11.44;64.25;99536.50;5122753;27;20051;-66
2022/09/28 05:58:25;;;;;;;4.60;2.50;;;;;;;11.46;64.43;99544.31;5118357;27;20057;-65
2022/09/28 06:00:54;;;;;;;6.22;2.80;;;;;;;11.47;64.42;99551.31;5123449;27;20118;-65
2022/09/28 06:03:22;;;;;;;3.72;2.58;;;;;;;11.48;64.44;99547.53;5113380;27;20052;-65
2022/09/28 06:05:51;;;;;;;5.60;3.00;;;;;;;11.49;64.51;99554.53;5115345;27;20055;-65
2022/09/28 06:08:22;;;;;;;6.50;2.60;;;;;;;11.49;64.52;99552.66;5111328;28;20058;-64
2022/09/28 06:10:50;;;;;;;6.15;3.50;;;;;;;11.47;64.44;99546.75;5113056;27;20047;-66
2022/09/28 06:13:17;;;;;;;4.60;2.38;;;;;;;11.47;64.50;99557.50;5119521;27;20039;-65
2022/09/28 06:15:46;;;;;;;4.88;2.65;;;;;;;11.45;64.71;99558.81;5112098;28;20062;-64
2022/09/28 06:18:15;;;;;;;8.10;3.10;;;;;;;11.44;64.65;99567.97;5118384;27;20089;-64
2022/09/28 06:20:43;;;;;;;10.88;3.50;;;;;;;11.44;64.52;99568.78;5114074;27;20463;-64
2022/09/28 06:23:13;;;;;;;5.35;3.50;;;;;;;11.44;64.48;99570.66;5125719;28;20040;-63
2022/09/28 06:25:41;;;;;;;5.90;2.67;;;;;;;11.42;64.53;99570.91;5124877;28;20107;-64
2022/09/28 06:28:11;;;;;;;6.35;3.28;;;;;;;11.40;64.49;99570.38;5117145;27;20052;-64
2022/09/28 06:30:40;;;;;;;5.70;3.67;;;;;;;11.41;64.54;99571.97;5114977;27;20548;-64
2022/09/28 06:33:12;;;;;;;8.70;4.15;;;;;;;11.41;64.68;99577.38;5123308;27;20075;-64
2022/09/28 06:35:41;;;;;;;6.82;3.42;;;;;;;11.41;64.64;99571.97;5128247;27;20061;-64
2022/09/28 06:38:09;;;;;;;4.68;3.28;;;;;;;11.41;64.47;99580.06;5123269;27;20116;-64
2022/09/28 06:40:38;;;;;;;5.72;3.28;;;;;;;11.41;64.70;99574.69;5116052;27;20040;-65
2022/09/28 06:43:09;;;;;;;6.40;3.53;;;;;;;11.39;64.84;99576.81;5129388;27;20464;-65
2022/09/28 06:45:38;;;;;;;5.82;3.55;;;;;;;11.41;64.81;99574.69;5117214;28;20115;-64
2022/09/28 06:48:07;;;;;;;4.75;3.55;;;;;;;11.43;64.93;99586.00;5125524;27;20054;-65
2022/09/28 06:50:37;;;;;;;7.25;3.75;;;;;;;11.42;64.85;99584.38;5125775;28;20057;-64
2022/09/28 06:53:06;;;;;;;6.80;3.70;;;;;;;11.42;64.84;99581.69;5123874;28;20051;-63
2022/09/28 06:55:34;;;;;;;7.40;3.72;;;;;;;11.43;64.74;99588.69;5114168;28;20119;-62
2022/09/28 06:58:04;;;;;;;6.22;3.72;;;;;;;11.44;64.78;99587.59;5120418;28;20051;-65
2022/09/28 07:00:34;;;;;;;6.03;3.22;;;;;;;11.46;64.87;99592.72;5116514;28;20053;-65
2022/09/28 07:03:03;;;;;;;5.22;3.97;;;;;;;11.46;64.77;99598.13;5124505;28;20111;-63
2022/09/28 07:05:33;;;;;;;6.88;3.50;;;;;;;11.45;64.82;99601.88;5124831;27;20035;-62
2022/09/28 07:08:02;;;;;;;4.93;3.40;;;;;;;11.46;64.86;99603.50;5111587;27;20043;-63
2022/09/28 07:10:31;;;;;;;5.07;2.90;;;;;;;11.43;65.00;99607.50;5123582;27;20531;-63
2022/09/28 07:13:01;;;;;;;5.13;3.50;;;;;;;11.46;64.96;99608.88;5113046;28;20052;-63
2022/09/28 07:15:32;;;;;;;8.55;3.70;;;;;;;11.45;65.15;99604.56;5112510;28;20062;-63
2022/09/28 07:18:01;;;;;;;5.97;3.88;;;;;;;11.45;65.20;99607.25;5122426;27;20119;-64
2022/09/28 07:20:31;;;;;;;9.32;3.72;;;;;;;11.46;65.21;99608.88;5117278;28;20040;-65
2022/09/28 07:23:08;;;;;;;;;;;;;;;11.46;65.24;99606.19;5121961;28;20054;-65
2022/09/28 07:25:46;;;;;;;7.00;3.65;;;;;;;11.46;65.46;99611.56;5120623;28;19951;-67
2022/09/28 07:28:16;;;;;;;6.80;4.13;;;;;;;11.44;65.49;99611.81;5117420;28;20051;-63
2022/09/28 07:30:45;;;;;;;5.05;3.35;;;;;;;11.41;65.49;99607.75;5122416;27;20058;-64
2022/09/28 07:33:14;;;;;;;4.88;2.83;;;;;;;11.41;65.63;99621.22;5126334;28;20054;-64
2022/09/28 07:35:50;;;;;;;8.27;3.15;;;;;;;11.41;65.84;99613.16;5119506;28;20110;-62
2022/09/28 07:38:18;;;;;;;5.97;3.35;;;;;;;11.40;65.84;99610.72;5121067;28;20051;-65
2022/09/28 07:43:32;;;;;;;4.75;2.90;;;;;;;11.40;65.85;99611.53;5128055;28;20043;-62
2022/09/28 07:46:01;;;;;;;4.15;2.85;;;;;;;11.41;65.80;99620.41;5111641;28;20052;-62
2022/09/28 07:48:36;;;;;;;7.85;3.30;;;;;;;11.39;65.83;99612.59;5115324;28;20048;-62
2022/09/28 07:51:05;;;;;;;4.13;2.88;;;;;;;11.49;65.80;99619.13;5126172;28;20097;-62
2022/09/28 07:53:32;;;;;;;7.85;3.03;;;;;;;11.58;65.58;99631.03;5119217;28;20157;-62
2022/09/28 07:56:03;;;;;;;4.07;2.53;;;;;;;11.61;64.94;99617.88;5117422;28;20058;-62
2022/09/28 07:58:32;;;;;;;7.20;2.60;;;;;;;11.87;64.62;99632.34;5126078;28;20127;-63
2022/09/28 08:01:05;;;;;;;8.82;2.80;;;;;;;12.03;64.20;99631.34;5117785;28;20063;-62
2022/09/28 08:03:34;;;;;;;5.20;2.65;;;;;;;12.15;63.42;99630.31;5116735;28;20491;-62
2022/09/28 08:06:04;;;;;;;3.35;2.47;;;;;;;12.17;63.43;99631.66;5115190;28;20116;-61
2022/09/28 08:08:33;;;;;;;10.73;3.00;;;;;;;12.17;63.39;99631.66;5117250;28;20056;-62
2022/09/28 08:11:03;;;;;;;7.25;2.80;;;;;;;12.16;63.66;99629.22;5113513;28;20130;-63
2022/09/28 08:13:30;;;;;;;3.70;2.25;;;;;;;12.11;63.90;99642.69;5123911;28;20420;-63
2022/09/28 08:16:01;;;;;;;7.18;2.67;;;;;;;12.05;64.10;99636.47;5123266;28;20055;-63
2022/09/28 08:18:31;;;;;;;7.03;2.55;;;;;;;12.01;64.17;99641.56;5115962;28;20039;-63
2022/09/28 08:23:44;;;;;;;6.90;2.60;;;;;;;11.94;64.59;99634.78;5116704;28;20107;-63
2022/09/28 08:26:12;;;;;;;5.50;2.65;;;;;;;11.90;64.87;99639.09;5127359;28;20058;-63
2022/09/28 08:28:43;;;;;;;5.20;2.35;;;;;;;11.80;64.82;99630.94;5120356;27;20083;-63
2022/09/28 08:31:11;;;;;;;3.92;2.10;;;;;;;11.84;65.36;99646.31;5127885;28;20047;-63
2022/09/28 08:33:41;;;;;;;5.50;2.50;;;;;;;11.85;65.15;99639.06;5125227;28;20051;-63
2022/09/28 08:36:10;;;;;;;3.97;1.65;;;;;;;11.85;65.29;99650.63;5128050;28;20161;-63
2022/09/28 08:38:38;;;;;;;2.97;2.05;;;;;;;11.86;65.81;99648.75;5126406;28;20489;-63
2022/09/28 08:41:15;;;;;;;6.07;2.38;;;;;;;11.84;65.41;99648.19;5127775;28;20044;-63
2022/09/28 08:44:05;;;;;;;;;;;;;;;11.84;65.62;99651.69;5126729;28;20515;-63
2022/09/28 08:46:37;;;;;;;5.70;2.72;;;;;;;11.80;65.53;99657.84;5121987;28;19927;-63
2022/09/28 08:49:10;;;;;;;5.25;2.60;;;;;;;11.78;65.80;99658.13;5122364;28;20114;-63
2022/09/28 08:51:59;;;;;;;4.53;2.13;;;;;;;11.76;65.99;99654.84;5127264;28;20048;-63
2022/09/28 08:54:37;;;;;;;4.18;1.90;;;;;;;11.73;66.27;99655.34;5122282;28;20093;-63
2022/09/28 08:57:11;;;;;;;6.88;2.67;;;;;;;11.71;66.42;99660.19;5127030;27;20065;-64
2022/09/28 08:59:51;;;;;;;5.03;1.90;;;;;;;11.72;66.17;99673.38;5120139;27;20492;-64
2022/09/28 09:02:24;;;;;;;2.78;1.92;;;;;;;11.70;66.54;99672.03;5126425;27;20058;-64
2022/09/28 09:04:54;;;;;;;6.43;2.70;;;;;;;11.70;66.59;99674.72;5127861;28;20075;-64
2022/09/28 09:07:37;;;;;;;6.20;2.28;;;;;;;11.72;66.55;99677.97;5126880;27;20047;-63
2022/09/28 09:10:13;;;;;;;5.10;2.30;;;;;;;11.76;66.50;99679.06;5121098;27;20051;-61
2022/09/28 09:12:49;;;;;;;5.30;1.77;;;;;;;11.74;66.78;99678.50;5126840;28;20062;-61
2022/09/28 09:15:38;;;;;;;5.05;2.20;;;;;;;11.72;66.81;99686.03;5128064;27;20047;-62
2022/09/28 09:18:24;;;;;;;3.00;1.80;;;;;;;11.71;67.05;99684.41;5120786;27;20048;-61
2022/09/28 09:20:57;;;;;;;3.20;1.97;;;;;;;11.71;67.25;99685.22;5120902;28;20036;-61
2022/09/28 09:23:40;;;;;;;5.60;1.95;;;;;;;11.76;67.17;99694.41;5123884;28;20040;-61
2022/09/28 09:26:16;;;;;;;3.67;1.80;;;;;;;11.78;67.23;99698.50;5126881;28;20071;-62
2022/09/28 09:29:05;;;;;;;5.97;2.50;;;;;;;11.92;66.87;99694.28;5113335;27;20052;-60
2022/09/28 09:31:48;;;;;;;3.42;1.80;;;;;;;12.10;66.57;99690.38;5107908;27;20052;-61
2022/09/28 09:34:41;;;;;;;8.70;1.98;;;;;;;12.33;66.45;99706.09;5121066;28;20048;-62
2022/09/28 09:37:24;;;;;;;4.03;1.73;;;;;;;12.57;65.74;99700.28;5116476;27;20487;-62
2022/09/28 09:40:07;;;;;;;5.40;2.88;;;;;;;12.80;65.14;99699.84;5122481;28;20052;-64
2022/09/28 09:42:51;;;;;;;6.00;2.00;;;;;;;12.98;64.51;99699.38;5126099;28;20054;-66
2022/09/28 09:45:45;;;;;;;2.50;1.67;;;;;;;13.06;64.29;99698.03;5122149;27;20063;-64
2022/09/28 09:48:19;;;;;;;7.95;2.28;;;;;;;13.08;64.21;99706.66;5117188;28;20112;-63
2022/09/28 09:50:51;;;;;;;4.97;2.00;;;;;;;13.04;63.85;99703.69;5117586;27;20566;-62
2022/09/28 09:53:27;;;;;;;6.03;2.45;;;;;;;12.99;63.94;99711.78;5116457;27;20111;-64
2022/09/28 09:55:57;;;;;;;;;;;;;;;12.89;64.38;99700.94;5119647;27;20055;-61
2022/09/28 09:58:29;;;;;;;5.70;2.50;;;;;;;12.82;64.73;99700.38;5119781;28;19927;-61
2022/09/28 10:01:05;;;;;;;6.45;2.05;;;;;;;12.81;64.92;99695.25;5120766;27;20044;-61
2022/09/28 10:03:38;;;;;;;7.55;2.10;;;;;;;12.78;65.30;99690.41;5112145;28;20472;-61
2022/09/28 10:06:12;;;;;;;6.30;2.67;;;;;;;12.75;65.41;99699.81;5131512;27;20059;-61
2022/09/28 10:08:46;;;;;;;3.47;2.17;;;;;;;12.72;65.45;99697.66;5119114;27;20067;-61
2022/09/28 10:11:17;;;;;;;4.07;2.25;;;;;;;12.67;65.39;99703.84;5113239;27;20043;-62
2022/09/28 10:13:48;;;;;;;3.90;1.80;;;;;;;12.63;65.85;99691.16;5125545;28;20058;-62
2022/09/28 10:16:18;;;;;;;5.97;1.90;;;;;;;12.63;65.58;99696.53;5116278;27;20047;-62
2022/09/28 10:18:46;;;;;;;5.47;1.83;;;;;;;12.63;65.65;99700.03;5110645;28;20143;-65
2022/09/28 10:21:14;;;;;;;3.70;1.80;;;;;;;12.63;65.94;99699.25;5121206;28;20043;-61
2022/09/28 10:23:46;;;;;;;6.15;2.10;;;;;;;12.61;65.95;99702.19;5112591;28;20461;-61
2022/09/28 10:26:23;;;;;;;3.97;2.05;;;;;;;12.55;65.73;99691.66;5125509;28;20054;-61
2022/09/28 10:28:55;;;;;;;4.15;1.95;;;;;;;12.63;65.82;99697.34;5114680;28;20051;-60
2022/09/28 10:31:37;;;;;;;9.50;2.45;;;;;;;12.64;66.01;99695.47;5115540;27;20504;-60
2022/09/28 10:34:07;;;;;;;4.75;1.70;;;;;;;12.65;66.05;99692.50;5112663;28;20127;-62
2022/09/28 10:36:47;;;;;;;7.82;1.90;;;;;;;12.67;66.06;99700.34;4752195;28;10000377;-60
2022/09/28 10:39:35;;;;;;;4.57;1.88;;;;;;;12.69;66.20;99698.19;5115560;28;20043;-61
2022/09/28 10:42:07;;;;;;;5.70;2.13;;;;;;;12.70;66.07;99691.72;5102789;28;20070;-60
2022/09/28 10:44:48;;;;;;;5.55;2.15;;;;;;;12.69;66.28;99690.91;5111034;28;20519;-62
2022/09/28 10:47:19;;;;;;;5.00;2.05;;;;;;;12.71;66.27;99696.84;5112271;28;20052;-61
2022/09/28 10:49:50;;;;;;;3.83;2.28;;;;;;;12.70;66.13;99691.72;5118909;28;20472;-60
2022/09/28 10:52:36;;;;;;;6.85;2.35;;;;;;;12.70;65.87;99689.84;5117180;27;20040;-64
2022/09/28 10:55:27;;;;;;;4.63;2.17;;;;;;;12.73;66.24;99691.19;5111062;27;20048;-64
2022/09/28 10:57:55;;;;;;;2.67;1.80;;;;;;;12.76;66.58;99681.75;5111722;27;20160;-62
2022/09/28 11:00:37;;;;;;;3.55;1.60;;;;;;;12.78;65.87;99695.78;5110034;27;20157;-61
2022/09/28 11:03:05;;;;;;;5.97;1.60;;;;;;;12.78;66.06;99691.22;5114202;28;20283;-63
2022/09/28 11:05:34;;;;;;;4.13;2.58;;;;;;;12.80;65.71;99693.63;5111482;27;20040;-63
2022/09/28 11:08:06;;;;;;;8.57;2.22;;;;;;;12.80;65.57;99693.63;5117976;28;20066;-63
2022/09/28 11:10:36;;;;;;;3.42;1.90;;;;;;;12.79;65.94;99705.50;5117876;28;20173;-63
2022/09/28 11:13:08;;;;;;;4.47;1.73;;;;;;;12.80;65.54;99696.34;5122402;27;20056;-62
2022/09/28 11:15:42;;;;;;;4.50;2.00;;;;;;;12.81;65.48;99693.38;5107265;28;20051;-63
2022/09/28 11:18:27;;;;;;;3.40;1.35;;;;;;;12.83;65.53;99693.09;5108157;28;20052;-62
2022/09/28 11:21:07;;;;;;;3.70;1.67;;;;;;;12.84;65.27;99695.53;5112854;27;20052;-62
2022/09/28 11:23:40;;;;;;;3.20;1.83;;;;;;;12.87;64.94;99696.91;5115797;28;20048;-62
2022/09/28 11:26:11;;;;;;;5.30;2.15;;;;;;;12.87;65.15;99695.00;5120258;28;20070;-62
2022/09/28 11:28:51;;;;;;;6.05;2.47;;;;;;;12.85;65.11;99699.88;5116315;28;20100;-61
2022/09/28 11:31:25;;;;;;;7.28;1.60;;;;;;;12.86;64.66;99696.09;5122493;27;20047;-61
2022/09/28 11:34:04;;;;;;;3.22;1.55;;;;;;;12.87;64.72;99700.41;5114860;28;20048;-61
2022/09/28 11:36:45;;;;;;;3.63;1.30;;;;;;;12.88;64.72;99702.03;5117138;27;20070;-61
2022/09/28 11:39:27;;;;;;;3.13;1.42;;;;;;;12.88;64.81;99695.81;5121612;28;20534;-65
2022/09/28 11:42:10;;;;;;;5.75;1.73;;;;;;;12.89;64.34;99687.47;5115924;28;20469;-62
2022/09/28 11:44:45;;;;;;;2.42;1.20;;;;;;;12.91;64.63;99695.28;5113171;28;20073;-62
2022/09/28 11:47:49;;;;;;;4.53;1.80;;;;;;;12.92;64.89;99692.34;5113721;28;20156;-61
2022/09/28 11:50:28;;;;;;;3.05;1.63;;;;;;;12.97;64.94;99692.34;5114648;28;20055;-62
2022/09/28 11:53:04;;;;;;;3.70;1.42;;;;;;;12.98;64.59;99685.06;5114846;28;20055;-61
2022/09/28 11:55:37;;;;;;;4.03;1.33;;;;;;;13.01;64.79;99682.66;5111958;28;20052;-62
2022/09/28 11:58:11;;;;;;;2.92;1.42;;;;;;;13.04;64.76;99673.22;5112034;28;20048;-62
2022/09/28 12:00:45;;;;;;;4.40;1.85;;;;;;;13.11;64.36;99689.94;5120303;28;20357;-62
2022/09/28 12:03:18;;;;;;;3.78;1.60;;;;;;;13.16;64.31;99694.53;5122384;27;20036;-62
2022/09/28 12:05:52;;;;;;;5.68;1.90;;;;;;;13.19;64.50;99689.47;5123042;27;20093;-62